createdAt,value
2022-09-15T00:00:22.686Z,9.711646
2022-09-15T00:01:22.701Z,9.711638
2022-09-15T00:02:22.848Z,9.711825
2022-09-15T00:03:22.667Z,9.711993
2022-09-15T00:04:22.637Z,9.711714
2022-09-15T00:05:22.632Z,9.711797
2022-09-15T00:06:22.622Z,9.711830
2022-09-15T00:07:22.611Z,9.711866
2022-09-15T00:08:22.613Z,9.711785
2022-09-15T00:09:22.596Z,9.711775
2022-09-15T00:10:22.589Z,9.711493
2022-09-15T00:11:22.591Z,9.711576
2022-09-15T00:12:22.572Z,9.711644
2022-09-15T00:13:22.561Z,9.711750
2022-09-15T00:14:22.567Z,9.711779
2022-09-15T00:15:22.548Z,9.711865
2022-09-15T00:16:22.577Z,9.711931
2022-09-15T00:17:22.546Z,9.711801
2022-09-15T00:18:22.526Z,9.711616
2022-09-15T00:19:22.527Z,9.711594
2022-09-15T00:20:22.514Z,9.711635
2022-09-15T00:21:22.504Z,9.711679
2022-09-15T00:22:22.504Z,9.711673
2022-09-15T00:23:22.490Z,9.711767
2022-09-15T00:24:22.487Z,9.711798
2022-09-15T00:25:22.470Z,9.711771
2022-09-15T00:26:22.467Z,9.711664
2022-09-15T00:27:22.455Z,9.711680
2022-09-15T00:28:22.453Z,9.711620
2022-09-15T00:29:22.451Z,9.711638
2022-09-15T00:35:23.518Z,9.711065
2022-09-15T00:36:23.445Z,9.711590
2022-09-15T00:37:23.432Z,9.711617
2022-09-15T00:38:23.418Z,9.711651
2022-09-15T00:39:23.414Z,9.711957
2022-09-15T00:40:23.465Z,9.712692
2022-09-15T00:41:23.392Z,9.712307
2022-09-15T00:42:23.385Z,9.712164
2022-09-15T00:43:23.373Z,9.712037
2022-09-15T00:44:23.372Z,9.712404
2022-09-15T00:45:23.496Z,9.711811
2022-09-15T00:46:23.351Z,9.711693
2022-09-15T00:47:23.351Z,9.711553
2022-09-15T00:48:23.339Z,9.711959
2022-09-15T00:49:23.369Z,9.711901
2022-09-15T00:50:23.320Z,9.711862
2022-09-15T00:51:23.316Z,9.712271
2022-09-15T00:52:23.314Z,9.712227
2022-09-15T00:53:23.297Z,9.712302
2022-09-15T00:54:23.288Z,9.712025
2022-09-15T00:55:23.291Z,9.712133
2022-09-15T00:56:23.284Z,9.712306
2022-09-15T00:57:23.269Z,9.712219
2022-09-15T00:58:23.262Z,9.712314
2022-09-15T00:59:23.252Z,9.712121
2022-09-15T01:00:23.250Z,9.711975
2022-09-15T01:01:23.288Z,9.711725
2022-09-15T01:02:23.291Z,9.711807
2022-09-15T01:03:23.218Z,9.711850
2022-09-15T01:04:23.217Z,9.711725
2022-09-15T01:05:23.202Z,9.711554
2022-09-15T01:06:23.211Z,9.711545
2022-09-15T01:07:23.195Z,9.711730
2022-09-15T01:08:23.183Z,9.711838
2022-09-15T01:09:23.173Z,9.711881
2022-09-15T01:10:23.167Z,9.712019
2022-09-15T01:11:23.156Z,9.712226
2022-09-15T01:12:23.150Z,9.711665
2022-09-15T01:13:23.140Z,9.711580
2022-09-15T01:14:23.135Z,9.711655
2022-09-15T01:15:23.128Z,9.711658
2022-09-15T01:16:23.137Z,9.711554
2022-09-15T01:17:23.105Z,9.711659
2022-09-15T01:18:23.101Z,9.711724
2022-09-15T01:19:23.088Z,9.711719
2022-09-15T01:20:23.080Z,9.711737
2022-09-15T01:21:23.088Z,9.711671
2022-09-15T01:22:23.064Z,9.711673
2022-09-15T01:23:23.067Z,9.711721
2022-09-15T01:24:23.052Z,9.711698
2022-09-15T01:25:23.036Z,9.711651
2022-09-15T01:26:23.033Z,9.711653
2022-09-15T01:27:41.160Z,9.711642
2022-09-15T01:28:25.016Z,9.711667
2022-09-15T01:29:23.017Z,9.711677
2022-09-15T01:30:23.002Z,9.711676
2022-09-15T01:31:23.594Z,9.711704
2022-09-15T01:32:22.994Z,9.711680
2022-09-15T01:33:22.981Z,9.711772
2022-09-15T01:34:22.980Z,9.711717
2022-09-15T01:35:22.966Z,9.711690
2022-09-15T01:36:22.959Z,9.711630
2022-09-15T01:37:22.946Z,9.711641
2022-09-15T01:38:22.947Z,9.711627
2022-09-15T01:39:22.933Z,9.711652
2022-09-15T01:40:23.023Z,9.711664
2022-09-15T01:41:22.914Z,9.711679
2022-09-15T01:42:22.906Z,9.711689
2022-09-15T01:43:22.891Z,9.711695
2022-09-15T01:44:22.886Z,9.711684
2022-09-15T01:45:22.941Z,9.711714
2022-09-15T01:46:22.874Z,9.711670
2022-09-15T01:47:22.863Z,9.711734
2022-09-15T01:48:22.857Z,9.711793
2022-09-15T01:49:22.857Z,9.711702
2022-09-15T01:50:22.854Z,9.711658
2022-09-15T01:51:22.834Z,9.711649
2022-09-15T01:52:22.825Z,9.711651
2022-09-15T01:53:22.829Z,9.711731
2022-09-15T01:54:22.836Z,9.711710
2022-09-15T01:55:22.801Z,9.711637
2022-09-15T01:56:22.797Z,9.711639
2022-09-15T01:57:22.787Z,9.711578
2022-09-15T01:58:22.792Z,9.711602
2022-09-15T01:59:22.772Z,9.711674
2022-09-15T02:00:22.773Z,9.711727
2022-09-15T02:01:22.836Z,9.711665
2022-09-15T02:02:22.864Z,9.711576
2022-09-15T02:03:22.747Z,9.711695
2022-09-15T02:04:22.746Z,9.711637
2022-09-15T02:05:22.727Z,9.711526
2022-09-15T02:06:22.721Z,9.711695
2022-09-15T02:07:22.718Z,9.711746
2022-09-15T02:08:22.704Z,9.711666
2022-09-15T02:09:22.696Z,9.711600
2022-09-15T02:10:22.690Z,9.711627
2022-09-15T02:11:22.684Z,9.711673
2022-09-15T02:12:22.677Z,9.711681
2022-09-15T02:13:22.666Z,9.711603
2022-09-15T02:14:22.654Z,9.711626
2022-09-15T02:15:22.646Z,9.711624
2022-09-15T02:16:22.712Z,9.711637
2022-09-15T02:17:22.642Z,9.711631
2022-09-15T02:18:22.640Z,9.711633
2022-09-15T02:19:22.623Z,9.711654
2022-09-15T02:20:22.616Z,9.711666
2022-09-15T02:21:22.603Z,9.711609
2022-09-15T02:22:22.611Z,9.711616
2022-09-15T02:23:22.583Z,9.711659
2022-09-15T02:24:22.572Z,9.711678
2022-09-15T02:25:22.604Z,9.711658
2022-09-15T02:26:22.557Z,9.711645
2022-09-15T02:27:22.565Z,9.711626
2022-09-15T02:28:22.552Z,9.711598
2022-09-15T02:29:22.542Z,9.711635
2022-09-15T02:30:22.525Z,9.711637
2022-09-15T02:31:22.574Z,9.711631
2022-09-15T02:32:22.517Z,9.711522
2022-09-15T02:33:22.503Z,9.711627
2022-09-15T02:34:22.492Z,9.711549
2022-09-15T02:35:23.149Z,9.711634
2022-09-15T02:36:22.486Z,9.711484
2022-09-15T02:37:22.474Z,9.711624
2022-09-15T02:38:22.465Z,9.711739
2022-09-15T02:39:22.451Z,9.711846
2022-09-15T02:40:22.502Z,9.711869
2022-09-15T02:41:22.431Z,9.711737
2022-09-15T02:42:22.430Z,9.711530
2022-09-15T02:43:22.415Z,9.711711
2022-09-15T02:44:22.406Z,9.711692
2022-09-15T02:45:22.462Z,9.711607
2022-09-15T02:46:22.401Z,9.711595
2022-09-15T02:47:22.396Z,9.711636
2022-09-15T02:48:22.376Z,9.711514
2022-09-15T02:49:22.369Z,9.711568
2022-09-15T02:50:22.374Z,9.711672
2022-09-15T02:51:23.078Z,9.711718
2022-09-15T02:52:23.076Z,9.711543
2022-09-15T02:53:22.672Z,9.711679
2022-09-15T02:54:22.331Z,9.711656
2022-09-15T02:55:22.325Z,9.711747
2022-09-15T02:56:22.322Z,9.711669
2022-09-15T02:57:22.308Z,9.711629
2022-09-15T02:58:22.295Z,9.711804
2022-09-15T02:59:22.308Z,9.712042
2022-09-15T03:00:22.285Z,9.712353
2022-09-15T03:01:22.346Z,9.712665
2022-09-15T03:02:22.307Z,9.712158
2022-09-15T03:03:22.259Z,9.712483
2022-09-15T03:04:22.252Z,9.712459
2022-09-15T03:05:22.255Z,9.712226
2022-09-15T03:06:22.242Z,9.712004
2022-09-15T03:07:22.236Z,9.711817
2022-09-15T03:08:22.217Z,9.711880
2022-09-15T03:09:22.245Z,9.711887
2022-09-15T03:10:22.209Z,9.712012
2022-09-15T03:11:22.197Z,9.711923
2022-09-15T03:12:22.190Z,9.711981
2022-09-15T03:13:22.184Z,9.711971
2022-09-15T03:14:22.185Z,9.712034
2022-09-15T03:15:22.167Z,9.712354
2022-09-15T03:16:22.211Z,9.712397
2022-09-15T03:17:23.165Z,9.711731
2022-09-15T03:18:22.244Z,9.711849
2022-09-15T03:19:22.144Z,9.712043
2022-09-15T03:20:22.136Z,9.712095
2022-09-15T03:21:22.134Z,9.712154
2022-09-15T03:22:22.119Z,9.712322
2022-09-15T03:23:23.088Z,9.712359
2022-09-15T03:24:22.108Z,9.712183
2022-09-15T03:25:22.095Z,9.712271
2022-09-15T03:26:22.085Z,9.712362
2022-09-15T03:27:22.077Z,9.712373
2022-09-15T03:28:22.080Z,9.712423
2022-09-15T03:29:22.064Z,9.712032
2022-09-15T03:30:22.090Z,9.711944
2022-09-15T03:31:22.094Z,9.711873
2022-09-15T03:32:22.037Z,9.711864
2022-09-15T03:33:22.058Z,9.711708
2022-09-15T03:34:22.018Z,9.711679
2022-09-15T03:35:22.018Z,9.711621
2022-09-15T03:36:22.001Z,9.711488
2022-09-15T03:37:22.001Z,9.711673
2022-09-15T03:38:22.062Z,9.711649
2022-09-15T03:39:21.979Z,9.711602
2022-09-15T03:40:22.080Z,9.711693
2022-09-15T03:41:21.965Z,9.711531
2022-09-15T03:42:21.962Z,9.711587
2022-09-15T03:43:21.954Z,9.711362
2022-09-15T03:44:21.940Z,9.711456
2022-09-15T03:45:21.938Z,9.711561
2022-09-15T03:46:21.925Z,9.711820
2022-09-15T03:47:21.929Z,9.711707
2022-09-15T03:48:21.912Z,9.711700
2022-09-15T03:49:21.906Z,9.711574
2022-09-15T03:50:21.891Z,9.711481
2022-09-15T03:51:21.887Z,9.711800
2022-09-15T03:52:21.875Z,9.711871
2022-09-15T03:53:21.875Z,9.711508
2022-09-15T03:54:21.867Z,9.711356
2022-09-15T03:55:21.849Z,9.710979
2022-09-15T03:56:21.849Z,9.710752
2022-09-15T03:57:21.836Z,9.711108
2022-09-15T03:58:21.828Z,9.710926
2022-09-15T03:59:21.823Z,9.710984
2022-09-15T04:00:21.813Z,9.711134
2022-09-15T04:01:21.920Z,9.711266
2022-09-15T04:02:21.860Z,9.711375
2022-09-15T04:03:21.797Z,9.711345
2022-09-15T04:04:21.783Z,9.711611
2022-09-15T04:05:21.778Z,9.711542
2022-09-15T04:06:21.764Z,9.711461
2022-09-15T04:07:21.758Z,9.711236
2022-09-15T04:08:21.750Z,9.711101
2022-09-15T04:09:21.736Z,9.711021
2022-09-15T04:10:21.728Z,9.710884
2022-09-15T04:11:21.719Z,9.711137
2022-09-15T04:12:21.719Z,9.711313
2022-09-15T04:13:25.507Z,9.711401
2022-09-15T04:14:22.703Z,9.711561
2022-09-15T04:15:21.688Z,9.711569
2022-09-15T04:16:21.711Z,9.711702
2022-09-15T04:17:21.670Z,9.711659
2022-09-15T04:18:21.663Z,9.711739
2022-09-15T04:19:21.660Z,9.711673
2022-09-15T04:20:21.647Z,9.711728
2022-09-15T04:21:21.645Z,9.711740
2022-09-15T04:22:21.631Z,9.711725
2022-09-15T04:23:21.627Z,9.711586
2022-09-15T04:24:21.618Z,9.711597
2022-09-15T04:25:21.611Z,9.711565
2022-09-15T04:26:21.613Z,9.711562
2022-09-15T04:27:21.594Z,9.711559
2022-09-15T04:28:21.592Z,9.711529
2022-09-15T04:29:21.594Z,9.711576
2022-09-15T04:30:21.571Z,9.711483
2022-09-15T04:31:21.660Z,9.711493
2022-09-15T04:32:21.555Z,9.711505
2022-09-15T04:33:21.554Z,9.711516
2022-09-15T04:34:21.536Z,9.711464
2022-09-15T04:35:21.560Z,9.711450
2022-09-15T04:36:21.518Z,9.711486
2022-09-15T04:37:21.529Z,9.711503
2022-09-15T04:38:21.516Z,9.711518
2022-09-15T04:39:21.510Z,9.711509
2022-09-15T04:40:21.565Z,9.711529
2022-09-15T04:41:21.483Z,9.711527
2022-09-15T04:42:21.478Z,9.711499
2022-09-15T04:43:21.474Z,9.711434
2022-09-15T04:44:21.480Z,9.711519
2022-09-15T04:45:21.459Z,9.711518
2022-09-15T04:46:21.472Z,9.711541
2022-09-15T04:47:21.449Z,9.711470
2022-09-15T04:48:21.474Z,9.711461
2022-09-15T04:49:21.445Z,9.711472
2022-09-15T04:50:21.411Z,9.711652
2022-09-15T04:51:21.417Z,9.711653
2022-09-15T04:52:21.396Z,9.711554
2022-09-15T04:53:21.414Z,9.711621
2022-09-15T04:54:21.399Z,9.711668
2022-09-15T04:55:21.382Z,9.711601
2022-09-15T04:56:21.368Z,9.711642
2022-09-15T04:57:21.351Z,9.711613
2022-09-15T04:58:21.368Z,9.711635
2022-09-15T04:59:21.335Z,9.711745
2022-09-15T05:00:21.335Z,9.711624
2022-09-15T05:01:21.371Z,9.711533
2022-09-15T05:02:21.376Z,9.711764
2022-09-15T05:03:21.343Z,9.711679
2022-09-15T05:04:21.343Z,9.711677
2022-09-15T05:05:22.299Z,9.711752
2022-09-15T05:06:21.312Z,9.711756
2022-09-15T05:07:21.290Z,9.711600
2022-09-15T05:08:21.269Z,9.711915
2022-09-15T05:09:21.269Z,9.711992
2022-09-15T05:10:21.253Z,9.711884
2022-09-15T05:11:21.247Z,9.712100
2022-09-15T05:12:22.202Z,9.712068
2022-09-15T05:13:21.231Z,9.711770
2022-09-15T05:14:21.264Z,9.711759
2022-09-15T05:15:21.203Z,9.711979
2022-09-15T05:16:21.254Z,9.711999
2022-09-15T05:17:24.079Z,9.711881
2022-09-15T05:18:22.189Z,9.711492
2022-09-15T05:19:21.187Z,9.711596
2022-09-15T05:20:21.172Z,9.711760
2022-09-15T05:21:21.162Z,9.711843
2022-09-15T05:22:21.152Z,9.711930
2022-09-15T05:23:21.143Z,9.711841
2022-09-15T05:24:21.143Z,9.711656
2022-09-15T05:25:21.163Z,9.711792
2022-09-15T05:26:21.128Z,9.711777
2022-09-15T05:27:21.118Z,9.711717
2022-09-15T05:28:21.113Z,9.711741
2022-09-15T05:29:21.111Z,9.711706
2022-09-15T05:30:37.646Z,9.711570
2022-09-15T05:31:23.181Z,9.711732
2022-09-15T05:32:21.088Z,9.711662
2022-09-15T05:33:21.067Z,9.711585
2022-09-15T05:34:21.067Z,9.711679
2022-09-15T05:35:21.052Z,9.711706
2022-09-15T05:36:21.049Z,9.711871
2022-09-15T05:37:21.037Z,9.711849
2022-09-15T05:38:22.636Z,9.711819
2022-09-15T05:39:21.023Z,9.711765
2022-09-15T05:40:21.179Z,9.711727
2022-09-15T05:41:21.010Z,9.711655
2022-09-15T05:42:21.015Z,9.711679
2022-09-15T05:43:20.985Z,9.711614
2022-09-15T05:44:21.707Z,9.711642
2022-09-15T05:45:21.118Z,9.711599
2022-09-15T05:46:21.166Z,9.711808
2022-09-15T05:47:20.985Z,9.711930
2022-09-15T05:48:20.968Z,9.711864
2022-09-15T05:49:20.938Z,9.711880
2022-09-15T05:50:20.940Z,9.711751
2022-09-15T05:51:20.925Z,9.711657
2022-09-15T05:52:21.709Z,9.711805
2022-09-15T05:53:21.714Z,9.711773
2022-09-15T05:54:20.902Z,9.711554
2022-09-15T05:55:20.900Z,9.711612
2022-09-15T05:56:20.883Z,9.711693
2022-09-15T05:57:20.881Z,9.711648
2022-09-15T05:58:20.868Z,9.711646
2022-09-15T05:59:20.877Z,9.711658
2022-09-15T06:00:20.855Z,9.711622
2022-09-15T06:01:21.803Z,9.711647
2022-09-15T06:02:20.916Z,9.711674
2022-09-15T06:03:20.861Z,9.711696
2022-09-15T06:04:20.902Z,9.711676
2022-09-15T06:05:20.814Z,9.711681
2022-09-15T06:06:21.988Z,9.711671
2022-09-15T06:07:21.819Z,9.711643
2022-09-15T06:08:21.642Z,9.711670
2022-09-15T06:09:20.815Z,9.711687
2022-09-15T06:10:20.779Z,9.711773
2022-09-15T06:11:53.184Z,9.711755
2022-09-15T06:12:20.761Z,9.711717
2022-09-15T06:13:20.754Z,9.711632
2022-09-15T06:14:25.169Z,9.711696
2022-09-15T06:15:20.839Z,9.711690
2022-09-15T06:16:54.233Z,9.711629
2022-09-15T06:17:20.748Z,9.711663
2022-09-15T06:18:20.716Z,9.711673
2022-09-15T06:19:20.708Z,9.711735
2022-09-15T06:20:20.697Z,9.711713
2022-09-15T06:21:20.738Z,9.711704
2022-09-15T06:22:20.695Z,9.711474
2022-09-15T06:23:20.678Z,9.711789
2022-09-15T06:24:20.663Z,9.711832
2022-09-15T06:25:20.660Z,9.711864
2022-09-15T06:26:20.656Z,9.711804
2022-09-15T06:27:20.648Z,9.711900
2022-09-15T06:28:20.634Z,9.712112
2022-09-15T06:29:20.636Z,9.712046
2022-09-15T06:30:20.625Z,9.711884
2022-09-15T06:31:20.661Z,9.711852
2022-09-15T06:32:20.610Z,9.711806
2022-09-15T06:33:20.595Z,9.711886
2022-09-15T06:34:20.592Z,9.711885
2022-09-15T06:35:20.588Z,9.711652
2022-09-15T06:36:20.562Z,9.711931
2022-09-15T06:37:20.556Z,9.712126
2022-09-15T06:38:20.563Z,9.712067
2022-09-15T06:39:20.558Z,9.712254
2022-09-15T06:40:20.579Z,9.712630
2022-09-15T06:41:20.527Z,9.713069
2022-09-15T06:42:20.520Z,9.713582
2022-09-15T06:43:20.556Z,9.712801
2022-09-15T06:44:20.513Z,9.712900
2022-09-15T06:45:20.528Z,9.712446
2022-09-15T06:46:20.612Z,9.711729
2022-09-15T06:47:20.487Z,9.712161
2022-09-15T06:48:24.929Z,9.711789
2022-09-15T06:49:21.473Z,9.711747
2022-09-15T06:50:20.487Z,9.711692
2022-09-15T06:51:20.458Z,9.711598
2022-09-15T06:52:20.445Z,9.711709
2022-09-15T06:53:20.460Z,9.711699
2022-09-15T06:54:20.425Z,9.711694
2022-09-15T06:55:20.433Z,9.711766
2022-09-15T06:56:20.428Z,9.711697
2022-09-15T06:57:20.401Z,9.711634
2022-09-15T06:58:20.398Z,9.711599
2022-09-15T06:59:20.384Z,9.711575
2022-09-15T07:00:20.396Z,9.712044
2022-09-15T07:01:21.214Z,9.712502
2022-09-15T07:02:20.470Z,9.712384
2022-09-15T07:03:21.330Z,9.712106
2022-09-15T07:04:20.346Z,9.712167
2022-09-15T07:05:20.354Z,9.712367
2022-09-15T07:06:20.333Z,9.712334
2022-09-15T07:07:20.318Z,9.712192
2022-09-15T07:08:20.311Z,9.711565
2022-09-15T07:09:20.304Z,9.711596
2022-09-15T07:10:20.352Z,9.711534
2022-09-15T07:11:20.291Z,9.711637
2022-09-15T07:12:20.278Z,9.711707
2022-09-15T07:13:20.272Z,9.711656
2022-09-15T07:14:20.285Z,9.711683
2022-09-15T07:15:20.255Z,9.711710
2022-09-15T07:16:20.310Z,9.711712
2022-09-15T07:17:20.236Z,9.711712
2022-09-15T07:18:20.282Z,9.711720
2022-09-15T07:19:20.221Z,9.711678
2022-09-15T07:20:20.214Z,9.711658
2022-09-15T07:21:20.255Z,9.711659
2022-09-15T07:22:20.207Z,9.711743
2022-09-15T07:23:20.234Z,9.711613
2022-09-15T07:24:20.188Z,9.711596
2022-09-15T07:25:20.176Z,9.711572
2022-09-15T07:26:20.170Z,9.711581
2022-09-15T07:27:20.161Z,9.711484
2022-09-15T07:28:20.833Z,9.711564
2022-09-15T07:29:21.153Z,9.711517
2022-09-15T07:30:20.142Z,9.711594
2022-09-15T07:31:20.179Z,9.711598
2022-09-15T07:32:20.121Z,9.711762
2022-09-15T07:33:20.142Z,9.711657
2022-09-15T07:34:20.117Z,9.711744
2022-09-15T07:35:20.098Z,9.711813
2022-09-15T07:36:20.114Z,9.711777
2022-09-15T07:37:20.089Z,9.711762
2022-09-15T07:38:20.084Z,9.711702
2022-09-15T07:39:20.081Z,9.711612
2022-09-15T07:40:20.111Z,9.711857
2022-09-15T07:41:20.048Z,9.711653
2022-09-15T07:42:20.084Z,9.711606
2022-09-15T07:43:20.036Z,9.711619
2022-09-15T07:44:20.025Z,9.711748
2022-09-15T07:45:20.778Z,9.711795
2022-09-15T07:46:20.012Z,9.711928
2022-09-15T07:47:20.333Z,9.711883
2022-09-15T07:48:23.249Z,9.711540
2022-09-15T07:49:21.986Z,9.711772
2022-09-15T07:50:19.990Z,9.711696
2022-09-15T07:51:19.994Z,9.711779
2022-09-15T07:52:19.984Z,9.711999
2022-09-15T07:53:19.974Z,9.712092
2022-09-15T07:54:23.084Z,9.711619
2022-09-15T07:55:20.939Z,9.711784
2022-09-15T07:56:19.949Z,9.711741
2022-09-15T07:57:19.967Z,9.711778
2022-09-15T07:58:19.926Z,9.711739
2022-09-15T07:59:19.916Z,9.711782
2022-09-15T08:00:19.908Z,9.711627
2022-09-15T08:01:19.991Z,9.711579
2022-09-15T08:02:19.959Z,9.711638
2022-09-15T08:03:19.877Z,9.711733
2022-09-15T08:04:19.887Z,9.711718
2022-09-15T08:05:20.815Z,9.711690
2022-09-15T08:06:19.862Z,9.711607
2022-09-15T08:07:19.855Z,9.711663
2022-09-15T08:08:19.841Z,9.711735
2022-09-15T08:09:19.844Z,9.711651
2022-09-15T08:10:19.825Z,9.711525
2022-09-15T08:11:19.812Z,9.711652
2022-09-15T08:12:19.892Z,9.711664
2022-09-15T08:13:19.799Z,9.711725
2022-09-15T08:14:19.797Z,9.711738
2022-09-15T08:15:19.766Z,9.711770
2022-09-15T08:16:20.858Z,9.711766
2022-09-15T08:17:19.765Z,9.711796
2022-09-15T08:18:19.754Z,9.711732
2022-09-15T08:19:19.750Z,9.711688
2022-09-15T08:20:19.748Z,9.711791
2022-09-15T08:21:19.734Z,9.711849
2022-09-15T08:22:19.768Z,9.711769
2022-09-15T08:23:19.729Z,9.711743
2022-09-15T08:24:19.734Z,9.711728
2022-09-15T08:25:19.737Z,9.711667
2022-09-15T08:26:19.698Z,9.711875
2022-09-15T08:27:19.681Z,9.711783
2022-09-15T08:28:19.682Z,9.711619
2022-09-15T08:29:19.660Z,9.711682
2022-09-15T08:30:19.672Z,9.711763
2022-09-15T08:31:19.735Z,9.711833
2022-09-15T08:32:19.645Z,9.711730
2022-09-15T08:33:19.640Z,9.711655
2022-09-15T08:34:19.633Z,9.711756
2022-09-15T08:35:19.630Z,9.711558
2022-09-15T08:36:19.625Z,9.711693
2022-09-15T08:37:19.606Z,9.711742
2022-09-15T08:38:19.646Z,9.711729
2022-09-15T08:39:20.358Z,9.711622
2022-09-15T08:40:19.833Z,9.711815
2022-09-15T08:41:21.415Z,9.711593
2022-09-15T08:42:19.707Z,9.711754
2022-09-15T08:43:20.224Z,9.711692
2022-09-15T08:44:19.547Z,9.711637
2022-09-15T08:45:19.557Z,9.711553
2022-09-15T08:46:19.614Z,9.711531
2022-09-15T08:47:20.289Z,9.711563
2022-09-15T08:48:19.537Z,9.711715
2022-09-15T08:49:30.792Z,9.711800
2022-09-15T08:50:21.499Z,9.711571
2022-09-15T08:51:19.492Z,9.711584
2022-09-15T08:52:19.500Z,9.711750
2022-09-15T08:53:19.489Z,9.711779
2022-09-15T08:54:19.468Z,9.711761
2022-09-15T08:55:19.459Z,9.711759
2022-09-15T08:56:19.466Z,9.711748
2022-09-15T08:57:19.476Z,9.711756
2022-09-15T08:58:19.456Z,9.711930
2022-09-15T08:59:19.457Z,9.712120
2022-09-15T09:00:52.770Z,9.711794
2022-09-15T09:01:19.503Z,9.711707
2022-09-15T09:02:19.433Z,9.711736
2022-09-15T09:03:19.382Z,9.711821
2022-09-15T09:11:39.322Z,9.711603
2022-09-15T09:12:39.334Z,9.711637
2022-09-15T09:13:39.298Z,9.711675
2022-09-15T09:14:39.294Z,9.711697
2022-09-15T09:15:39.354Z,9.711709
2022-09-15T09:16:40.268Z,9.711724
2022-09-15T09:17:39.259Z,9.711716
2022-09-15T09:18:40.205Z,9.711655
2022-09-15T09:19:40.258Z,9.711606
2022-09-15T09:20:39.254Z,9.711613
2022-09-15T09:21:39.270Z,9.711616
2022-09-15T09:22:39.236Z,9.711646
2022-09-15T09:23:39.232Z,9.711605
2022-09-15T09:24:39.204Z,9.711679
2022-09-15T09:25:39.199Z,9.711682
2022-09-15T09:26:39.189Z,9.711638
2022-09-15T09:27:39.192Z,9.711588
2022-09-15T09:28:39.188Z,9.711500
2022-09-15T09:29:39.208Z,9.711732
2022-09-15T09:30:40.187Z,9.711812
2022-09-15T09:31:39.165Z,9.711780
2022-09-15T09:32:39.149Z,9.711717
2022-09-15T09:33:41.780Z,9.711695
2022-09-15T09:34:39.131Z,9.711575
2022-09-15T09:35:39.118Z,9.711628
2022-09-15T09:36:39.114Z,9.711728
2022-09-15T09:37:39.116Z,9.711761
2022-09-15T09:38:39.120Z,9.711720
2022-09-15T09:39:39.094Z,9.711697
2022-09-15T09:40:39.187Z,9.711679
2022-09-15T09:41:39.087Z,9.711677
2022-09-15T09:42:39.065Z,9.711664
2022-09-15T09:43:39.061Z,9.711683
2022-09-15T09:44:39.068Z,9.711679
2022-09-15T09:45:39.090Z,9.711658
2022-09-15T09:46:39.101Z,9.711719
2022-09-15T09:47:39.026Z,9.711645
2022-09-15T09:48:39.028Z,9.711647
2022-09-15T09:49:39.025Z,9.711678
2022-09-15T09:50:39.065Z,9.711712
2022-09-15T09:51:39.006Z,9.711682
2022-09-15T09:52:38.999Z,9.711745
2022-09-15T09:53:38.999Z,9.711720
2022-09-15T09:54:38.979Z,9.711721
2022-09-15T09:55:38.994Z,9.711682
2022-09-15T09:56:38.968Z,9.711653
2022-09-15T09:57:40.800Z,9.711694
2022-09-15T09:58:40.639Z,9.711724
2022-09-15T09:59:38.937Z,9.711642
2022-09-15T10:00:38.940Z,9.711736
2022-09-15T10:01:38.984Z,9.711670
2022-09-15T10:02:38.911Z,9.711598
2022-09-15T10:03:38.901Z,9.711639
2022-09-15T10:04:39.956Z,9.711653
2022-09-15T10:05:39.653Z,9.711672
2022-09-15T10:06:38.884Z,9.711672
2022-09-15T10:07:38.890Z,9.711666
2022-09-15T10:08:38.871Z,9.711631
2022-09-15T10:09:38.869Z,9.711604
2022-09-15T10:10:38.854Z,9.711655
2022-09-15T10:11:38.839Z,9.711666
2022-09-15T10:12:38.829Z,9.711678
2022-09-15T10:13:38.820Z,9.711659
2022-09-15T10:14:38.819Z,9.711722
2022-09-15T10:15:39.725Z,9.711659
2022-09-15T10:16:39.241Z,9.711647
2022-09-15T10:17:38.809Z,9.711692
2022-09-15T10:18:38.781Z,9.711716
2022-09-15T10:19:38.788Z,9.711694
2022-09-15T10:20:38.768Z,9.711655
2022-09-15T10:21:38.767Z,9.711703
2022-09-15T10:22:38.748Z,9.711773
2022-09-15T10:23:38.753Z,9.711686
2022-09-15T10:24:38.729Z,9.711642
2022-09-15T10:25:57.964Z,9.711613
2022-09-15T10:26:40.730Z,9.711629
2022-09-15T10:27:38.719Z,9.711722
2022-09-15T10:28:38.704Z,9.711791
2022-09-15T10:29:38.735Z,9.711783
2022-09-15T10:30:38.706Z,9.711696
2022-09-15T10:31:38.714Z,9.711627
2022-09-15T10:32:40.302Z,9.711849
2022-09-15T10:33:38.670Z,9.711851
2022-09-15T10:34:38.653Z,9.711823
2022-09-15T10:35:38.648Z,9.711762
2022-09-15T10:36:38.638Z,9.711773
2022-09-15T10:37:38.647Z,9.711780
2022-09-15T10:38:38.627Z,9.711851
2022-09-15T10:39:38.626Z,9.711947
2022-09-15T10:40:38.607Z,9.712057
2022-09-15T10:41:38.615Z,9.712086
2022-09-15T10:42:38.602Z,9.711939
2022-09-15T10:43:38.588Z,9.711879
2022-09-15T10:44:38.578Z,9.711789
2022-09-15T10:45:38.624Z,9.711863
2022-09-15T10:46:39.499Z,9.711885
2022-09-15T10:47:39.574Z,9.711775
2022-09-15T10:48:38.569Z,9.711668
2022-09-15T10:49:38.554Z,9.711741
2022-09-15T10:50:38.539Z,9.711723
2022-09-15T10:51:38.540Z,9.711634
2022-09-15T10:52:38.505Z,9.711703
2022-09-15T10:53:38.511Z,9.711795
2022-09-15T10:54:38.489Z,9.711919
2022-09-15T10:55:52.435Z,9.711805
2022-09-15T10:56:40.599Z,9.711782
2022-09-15T10:57:38.499Z,9.711643
2022-09-15T10:58:40.954Z,9.711684
2022-09-15T10:59:39.489Z,9.711580
2022-09-15T11:00:38.469Z,9.711570
2022-09-15T11:01:39.292Z,9.711586
2022-09-15T11:02:38.428Z,9.711638
2022-09-15T11:03:39.178Z,9.711665
2022-09-15T11:04:38.420Z,9.711637
2022-09-15T11:05:38.409Z,9.711603
2022-09-15T11:06:38.400Z,9.711707
2022-09-15T11:07:38.391Z,9.711497
2022-09-15T11:08:38.387Z,9.711634
2022-09-15T11:09:38.377Z,9.711499
2022-09-15T11:10:38.368Z,9.711396
2022-09-15T11:11:38.358Z,9.711307
2022-09-15T11:12:38.348Z,9.711438
2022-09-15T11:13:38.349Z,9.711584
2022-09-15T11:14:38.335Z,9.711575
2022-09-15T11:15:38.326Z,9.711491
2022-09-15T11:16:38.388Z,9.711441
2022-09-15T11:17:38.315Z,9.711558
2022-09-15T11:18:38.311Z,9.711643
2022-09-15T11:20:10.723Z,9.711584
2022-09-15T11:20:38.292Z,9.711411
2022-09-15T11:21:38.298Z,9.711102
2022-09-15T11:22:38.298Z,9.711560
2022-09-15T11:23:38.304Z,9.711496
2022-09-15T11:24:38.333Z,9.711024
2022-09-15T11:25:38.276Z,9.711918
2022-09-15T11:26:38.233Z,9.711733
2022-09-15T11:46:46.557Z,9.710408
2022-09-15T11:47:46.523Z,9.710925
2022-09-15T11:48:46.488Z,9.711349
2022-09-15T11:49:46.469Z,9.711499
2022-09-15T11:50:46.460Z,9.711568
2022-09-15T11:51:46.458Z,9.711575
2022-09-15T11:52:46.448Z,9.711544
2022-09-15T11:53:46.453Z,9.711730
2022-09-15T11:54:46.440Z,9.711638
2022-09-15T11:55:46.914Z,9.711751
2022-09-15T11:56:46.410Z,9.711719
2022-09-15T11:57:46.402Z,9.711675
2022-09-15T11:58:46.407Z,9.711765
2022-09-15T11:59:46.388Z,9.711700
2022-09-15T12:00:46.383Z,9.711702
2022-09-15T12:01:46.446Z,9.711587
2022-09-15T12:02:46.424Z,9.711663
2022-09-15T12:03:46.359Z,9.711657
2022-09-15T12:04:46.346Z,9.711738
2022-09-15T12:05:46.340Z,9.711694
2022-09-15T12:06:46.401Z,9.711673
2022-09-15T12:07:46.328Z,9.711799
2022-09-15T12:08:46.329Z,9.711727
2022-09-15T12:09:46.320Z,9.711690
2022-09-15T12:10:46.303Z,9.711597
2022-09-15T12:11:46.311Z,9.711770
2022-09-15T12:12:46.298Z,9.711922
2022-09-15T12:13:46.283Z,9.711889
2022-09-15T12:14:46.278Z,9.711634
2022-09-15T12:15:46.276Z,9.711600